Time;durP1;ratioP1;P1;durP2;ratioP2;P2;SDS_P1;SDS_P2;PMS_P1;PMS_P2;Temp;Humidity;BMP_temperature;BMP_pressure;BME280_temperature;BME280_humidity;BME280_pressure;Samples;Min_cycle;Max_cycle;Signal;HPM_P1;HPM_P2
2023/07/03 00:00:45;;;;;;;11.77;2.58;;;17.00;99.90;;;;;;5068255;28;20309;-65
2023/07/03 00:03:13;;;;;;;11.40;2.88;;;17.00;99.90;;;;;;5064480;28;20366;-65
2023/07/03 00:05:48;;;;;;;9.82;2.75;;;17.00;99.90;;;;;;5073913;28;20044;-66
2023/07/03 00:08:16;;;;;;;10.80;2.92;;;17.00;99.90;;;;;;5073322;28;20418;-65
2023/07/03 00:10:42;;;;;;;11.55;3.47;;;17.00;99.90;;;;;;5075307;28;20024;-65
2023/07/03 00:13:08;;;;;;;15.73;2.85;;;17.00;99.90;;;;;;5075711;28;20418;-65
2023/07/03 00:15:34;;;;;;;15.57;2.55;;;17.00;99.90;;;;;;5073632;28;20425;-64
2023/07/03 00:18:00;;;;;;;16.25;2.90;;;17.00;99.90;;;;;;5074227;28;20099;-65
2023/07/03 00:20:27;;;;;;;11.73;3.13;;;17.00;99.90;;;;;;5069985;28;20025;-67
2023/07/03 00:22:54;;;;;;;14.95;2.97;;;17.00;99.90;;;;;;5070381;28;20016;-92
2023/07/03 00:25:22;;;;;;;14.20;3.30;;;17.00;99.90;;;;;;5068260;28;20485;-84
2023/07/03 00:27:48;;;;;;;14.77;3.38;;;17.00;99.90;;;;;;5063183;28;20468;-67
2023/07/03 00:30:15;;;;;;;8.32;2.50;;;17.00;99.90;;;;;;5073688;28;20083;-65
2023/07/03 00:32:41;;;;;;;10.93;3.60;;;17.00;99.90;;;;;;5071077;28;20368;-66
2023/07/03 00:35:07;;;;;;;13.57;2.90;;;17.00;99.90;;;;;;5073592;28;20044;-72
2023/07/03 00:37:34;;;;;;;19.63;3.03;;;17.00;99.90;;;;;;5067781;28;20032;-66
2023/07/03 00:40:00;;;;;;;9.60;3.05;;;17.00;99.90;;;;;;5073988;28;20437;-66
2023/07/03 00:42:28;;;;;;;10.32;2.53;;;17.00;99.90;;;;;;5075453;28;20043;-88
2023/07/03 00:44:54;;;;;;;17.02;2.60;;;17.00;99.90;;;;;;5071840;28;20103;-68
2023/07/03 00:47:21;;;;;;;16.27;4.13;;;17.00;99.90;;;;;;5081587;28;20379;-65
2023/07/03 00:49:49;;;;;;;19.13;2.78;;;17.00;99.90;;;;;;5075389;28;20150;-75
2023/07/03 00:52:16;;;;;;;10.45;3.63;;;17.00;99.90;;;;;;5065195;28;20044;-73
2023/07/03 00:54:42;;;;;;;17.27;3.33;;;17.10;99.90;;;;;;5055072;28;20033;-65
2023/07/03 00:57:12;;;;;;;14.35;3.15;;;17.10;99.90;;;;;;5060430;28;20031;-65
2023/07/03 00:59:39;;;;;;;14.45;3.08;;;17.10;99.90;;;;;;5077168;28;20059;-74
2023/07/03 01:02:24;;;;;;;11.00;2.72;;;17.10;99.90;;;;;;5059131;28;20028;-65
2023/07/03 01:05:14;;;;;;;19.95;3.22;;;17.10;99.90;;;;;;5074663;28;20040;-66
2023/07/03 01:07:40;;;;;;;10.20;2.92;;;17.10;99.90;;;;;;5060751;28;20434;-66
2023/07/03 01:10:10;;;;;;;16.77;3.20;;;17.10;99.90;;;;;;5075060;28;20055;-67
2023/07/03 01:12:40;;;;;;;15.43;2.70;;;17.10;99.90;;;;;;5068795;28;20033;-73
2023/07/03 01:15:08;;;;;;;15.75;2.58;;;17.10;99.90;;;;;;5067006;28;20063;-68
2023/07/03 01:17:36;;;;;;;13.77;3.97;;;17.10;99.90;;;;;;5073855;28;20058;-67
2023/07/03 01:20:04;;;;;;;18.02;3.80;;;17.00;99.90;;;;;;5064212;28;20035;-74
2023/07/03 01:22:50;;;;;;;11.63;2.97;;;17.00;99.90;;;;;;5067650;28;20079;-66
2023/07/03 01:25:18;;;;;;;;;;;17.00;99.90;;;;;;5067757;28;20081;-74
2023/07/03 01:27:46;;;;;;;17.77;2.95;;;17.00;99.90;;;;;;5068669;28;19904;-70
2023/07/03 01:30:15;;;;;;;11.27;2.65;;;17.00;99.90;;;;;;5055470;28;20056;-67
2023/07/03 01:32:42;;;;;;;12.88;2.40;;;17.00;99.90;;;;;;5065531;28;20032;-67
2023/07/03 01:35:11;;;;;;;11.82;2.83;;;17.00;99.90;;;;;;5074305;28;20135;-77
2023/07/03 01:37:41;;;;;;;9.45;2.55;;;17.00;99.90;;;;;;5067915;28;20025;-66
2023/07/03 01:40:10;;;;;;;14.63;2.30;;;16.90;99.90;;;;;;5073769;28;20031;-75
2023/07/03 01:42:38;;;;;;;10.30;2.40;;;16.90;99.90;;;;;;5074081;28;20036;-75
2023/07/03 01:45:05;;;;;;;10.02;2.45;;;16.90;99.90;;;;;;5073498;28;20013;-67
2023/07/03 01:47:31;;;;;;;18.48;2.75;;;16.90;99.90;;;;;;5070207;28;20207;-65
2023/07/03 01:49:57;;;;;;;8.35;2.10;;;16.90;99.90;;;;;;5066652;28;20119;-66
2023/07/03 01:52:33;;;;;;;24.00;3.30;;;16.80;99.90;;;;;;5074320;28;20028;-66
2023/07/03 01:55:39;;;;;;;12.63;2.47;;;16.80;99.90;;;;;;5073343;28;20532;-67
2023/07/03 01:58:05;;;;;;;8.60;2.88;;;16.80;99.90;;;;;;5065377;28;20063;-67
2023/07/03 02:00:52;;;;;;;9.50;2.67;;;16.80;99.90;;;;;;5066086;28;20068;-66
2023/07/03 02:03:44;;;;;;;8.23;2.00;;;16.70;99.90;;;;;;5072448;28;20043;-68
2023/07/03 02:06:20;;;;;;;11.23;2.55;;;16.70;99.90;;;;;;5075272;28;20032;-65
2023/07/03 02:08:49;;;;;;;6.88;1.83;;;16.70;99.90;;;;;;5075111;28;20017;-75
2023/07/03 02:11:17;;;;;;;9.02;1.60;;;16.70;99.90;;;;;;5075316;28;20067;-77
2023/07/03 02:13:43;;;;;;;6.70;1.27;;;16.70;99.90;;;;;;5077835;28;20101;-70
2023/07/03 02:16:09;;;;;;;6.13;1.20;;;16.70;99.90;;;;;;5074927;28;20119;-66
2023/07/03 02:18:35;;;;;;;1.87;0.90;;;16.70;99.90;;;;;;5077001;28;20017;-66
2023/07/03 02:21:01;;;;;;;7.90;1.40;;;16.60;99.90;;;;;;5076765;28;20127;-67
2023/07/03 02:23:27;;;;;;;4.90;1.30;;;16.60;99.90;;;;;;5074242;28;20031;-69
2023/07/03 02:25:53;;;;;;;5.68;1.00;;;16.50;99.90;;;;;;5077372;28;20052;-67
2023/07/03 02:28:19;;;;;;;3.78;0.95;;;16.50;99.90;;;;;;5072391;28;20067;-66
2023/07/03 02:30:44;;;;;;;4.00;0.80;;;16.50;99.90;;;;;;5057648;28;20021;-68
2023/07/03 02:33:11;;;;;;;5.00;1.00;;;16.60;99.90;;;;;;5073933;28;20035;-65
2023/07/03 02:35:41;;;;;;;5.57;1.20;;;16.50;99.90;;;;;;5077456;28;20044;-65
2023/07/03 02:38:10;;;;;;;4.90;1.05;;;16.50;99.90;;;;;;5062962;28;20057;-66
2023/07/03 02:40:38;;;;;;;1.80;1.00;;;16.50;99.90;;;;;;5069421;28;20029;-68
2023/07/03 02:43:04;;;;;;;1.73;0.88;;;16.50;99.90;;;;;;5071160;28;20013;-69
2023/07/03 02:45:41;;;;;;;3.20;1.10;;;16.50;99.90;;;;;;5077230;28;20024;-68
2023/07/03 02:48:07;;;;;;;;;;;16.50;99.90;;;;;;5077957;28;20032;-66
2023/07/03 02:50:33;;;;;;;;;;;16.50;99.90;;;;;;5068275;28;19915;-65
2023/07/03 02:52:58;;;;;;;4.83;1.00;;;16.50;99.90;;;;;;5072878;28;19913;-65
2023/07/03 02:55:25;;;;;;;4.43;0.80;;;16.50;99.90;;;;;;5076609;28;20039;-68
2023/07/03 02:57:51;;;;;;;1.95;0.95;;;16.40;99.90;;;;;;5077268;28;20020;-66
2023/07/03 03:00:17;;;;;;;1.92;1.00;;;16.40;99.90;;;;;;5076266;28;20052;-67
2023/07/03 03:02:44;;;;;;;2.63;0.90;;;16.40;99.90;;;;;;5077182;28;20036;-65
2023/07/03 03:05:10;;;;;;;3.25;0.90;;;16.40;99.90;;;;;;5076221;28;20032;-64
2023/07/03 03:07:36;;;;;;;2.25;0.93;;;16.40;99.90;;;;;;5075976;28;20066;-65
2023/07/03 03:10:03;;;;;;;2.05;0.95;;;16.30;99.90;;;;;;5076927;28;20107;-65
2023/07/03 03:12:29;;;;;;;6.35;1.00;;;16.40;99.90;;;;;;5072151;28;20306;-65
2023/07/03 03:14:55;;;;;;;10.83;1.17;;;16.40;99.90;;;;;;5067193;28;20029;-65
2023/07/03 03:17:20;;;;;;;1.67;0.80;;;16.30;99.90;;;;;;5073488;28;20078;-65
2023/07/03 03:19:46;;;;;;;6.80;1.40;;;16.30;99.90;;;;;;5065590;28;20423;-66
2023/07/03 03:22:12;;;;;;;2.20;1.00;;;16.30;99.90;;;;;;5076034;28;20099;-66
2023/07/03 03:24:37;;;;;;;4.13;0.63;;;16.30;99.90;;;;;;5075617;28;20043;-65
2023/07/03 03:27:06;;;;;;;6.37;1.13;;;16.30;99.90;;;;;;5076775;28;20047;-66
2023/07/03 03:29:33;;;;;;;2.53;1.13;;;16.30;99.90;;;;;;5071090;28;20028;-65
2023/07/03 03:32:00;;;;;;;2.78;0.77;;;16.20;99.90;;;;;;5056765;28;20029;-75
2023/07/03 03:34:25;;;;;;;1.77;0.80;;;16.30;99.90;;;;;;5069907;28;20028;-66
2023/07/03 03:36:51;;;;;;;3.53;0.97;;;16.20;99.90;;;;;;5076325;28;20474;-67
2023/07/03 03:39:17;;;;;;;1.90;0.90;;;16.20;99.90;;;;;;5065627;28;20323;-66
2023/07/03 03:41:43;;;;;;;2.77;0.73;;;16.20;99.90;;;;;;5068337;28;20029;-65
2023/07/03 03:44:09;;;;;;;1.27;1.00;;;16.20;99.90;;;;;;5067394;28;20346;-67
2023/07/03 03:46:35;;;;;;;5.78;0.90;;;16.20;99.90;;;;;;5056823;28;20017;-85
2023/07/03 03:49:01;;;;;;;4.97;1.20;;;16.20;99.90;;;;;;5074257;28;20028;-66
2023/07/03 03:51:27;;;;;;;1.75;0.85;;;16.20;99.90;;;;;;5061840;28;20033;-66
2023/07/03 03:53:53;;;;;;;5.47;0.90;;;16.20;99.90;;;;;;5075077;28;20039;-66
2023/07/03 03:56:19;;;;;;;2.97;0.73;;;16.20;99.90;;;;;;5073988;28;20032;-70
2023/07/03 03:58:46;;;;;;;6.83;1.03;;;16.20;99.90;;;;;;5056973;28;20429;-67
2023/07/03 04:01:12;;;;;;;;;;;16.20;99.90;;;;;;5075354;28;20139;-86
2023/07/03 04:03:38;;;;;;;4.82;1.05;;;16.20;99.90;;;;;;5062080;28;19905;-71
2023/07/03 04:06:04;;;;;;;6.13;1.20;;;16.20;99.90;;;;;;5063296;28;20322;-65
2023/07/03 04:08:29;;;;;;;4.93;1.02;;;16.20;99.90;;;;;;5076194;28;20365;-66
2023/07/03 04:10:55;;;;;;;4.20;1.50;;;16.10;99.90;;;;;;5075414;28;20029;-65
2023/07/03 04:13:21;;;;;;;3.73;1.03;;;16.10;99.90;;;;;;5076046;28;20378;-71
2023/07/03 04:15:53;;;;;;;2.05;1.05;;;16.20;99.90;;;;;;5075412;28;20391;-73
2023/07/03 04:18:20;;;;;;;3.33;1.13;;;16.20;99.90;;;;;;5075439;28;20031;-67
2023/07/03 04:20:47;;;;;;;1.48;0.57;;;16.20;99.90;;;;;;5074979;28;20430;-66
2023/07/03 04:23:13;;;;;;;;;;;16.20;99.90;;;;;;5076221;28;20024;-67
2023/07/03 04:25:39;;;;;;;5.65;0.90;;;16.20;99.90;;;;;;5074388;28;19908;-66
2023/07/03 04:28:05;;;;;;;7.90;0.90;;;16.20;99.90;;;;;;5072375;28;20115;-71
2023/07/03 04:30:31;;;;;;;10.30;1.90;;;16.20;99.90;;;;;;5063865;28;20598;-66
2023/07/03 04:32:57;;;;;;;2.77;1.30;;;16.10;99.90;;;;;;5074588;28;20103;-66
2023/07/03 04:35:23;;;;;;;3.50;1.20;;;16.10;99.90;;;;;;5068534;28;20096;-67
2023/07/03 04:37:51;;;;;;;3.30;0.93;;;16.10;99.90;;;;;;5068296;28;20419;-65
2023/07/03 04:40:18;;;;;;;7.45;1.13;;;16.10;99.90;;;;;;5073516;28;20111;-66
2023/07/03 04:42:45;;;;;;;5.53;1.45;;;16.10;99.90;;;;;;5066733;28;20017;-68
2023/07/03 04:45:10;;;;;;;;;;;16.00;99.90;;;;;;5069114;28;20055;-66
2023/07/03 04:47:39;;;;;;;3.10;0.77;;;16.10;99.90;;;;;;5063603;28;19912;-65
2023/07/03 04:50:11;;;;;;;2.05;0.70;;;16.10;99.90;;;;;;5059353;28;20116;-69
2023/07/03 04:52:38;;;;;;;3.85;1.10;;;16.10;99.90;;;;;;5068290;28;20292;-64
2023/07/03 04:55:07;;;;;;;4.78;1.35;;;16.10;99.90;;;;;;5058409;28;20013;-65
2023/07/03 04:57:33;;;;;;;5.80;0.93;;;16.10;99.90;;;;;;5060042;28;20074;-65
2023/07/03 05:00:00;;;;;;;6.10;1.03;;;16.10;99.90;;;;;;5060348;28;20443;-65
2023/07/03 05:02:26;;;;;;;;;;;16.20;99.90;;;;;;5066611;28;20281;-65
2023/07/03 05:04:53;;;;;;;4.00;1.27;;;16.20;99.90;;;;;;5064616;28;19979;-92
2023/07/03 05:07:22;;;;;;;5.40;0.98;;;16.20;99.90;;;;;;5057740;28;20033;-65
2023/07/03 05:09:48;;;;;;;3.25;1.42;;;16.20;99.90;;;;;;5068628;28;20737;-66
2023/07/03 05:12:14;;;;;;;9.47;1.57;;;16.20;99.90;;;;;;5068055;28;20021;-68
2023/07/03 05:14:40;;;;;;;12.47;1.10;;;16.30;99.90;;;;;;5063759;28;20060;-68
2023/07/03 05:17:06;;;;;;;8.60;1.07;;;16.30;99.90;;;;;;5064350;28;20033;-66
2023/07/03 05:19:31;;;;;;;7.07;1.50;;;16.30;99.90;;;;;;5065592;28;20101;-67
2023/07/03 05:21:59;;;;;;;4.33;1.20;;;16.30;99.90;;;;;;5065158;28;20032;-67
2023/07/03 05:24:24;;;;;;;8.50;1.55;;;16.40;99.90;;;;;;5065894;28;20017;-66
2023/07/03 05:26:52;;;;;;;9.23;1.53;;;16.40;99.90;;;;;;5068465;28;20425;-79
2023/07/03 05:29:18;;;;;;;5.38;0.93;;;16.40;99.90;;;;;;5072744;28;20312;-66
2023/07/03 05:31:44;;;;;;;4.60;1.53;;;16.30;99.90;;;;;;5066506;28;20052;-65
2023/07/03 05:34:10;;;;;;;8.65;1.17;;;16.40;99.90;;;;;;5060769;28;20585;-65
2023/07/03 05:36:36;;;;;;;2.83;1.03;;;16.40;99.90;;;;;;5064805;28;20028;-65
2023/07/03 05:39:02;;;;;;;7.82;1.40;;;16.40;99.90;;;;;;5072856;28;20255;-66
2023/07/03 05:41:28;;;;;;;4.33;1.00;;;16.40;99.90;;;;;;5075799;28;20024;-66
2023/07/03 05:43:54;;;;;;;4.50;0.90;;;16.40;99.90;;;;;;5072957;28;20032;-68
2023/07/03 05:46:20;;;;;;;5.00;1.40;;;16.40;99.90;;;;;;5064499;28;20021;-65
2023/07/03 05:48:46;;;;;;;11.10;1.57;;;16.40;99.90;;;;;;5065178;28;20261;-68
2023/07/03 05:51:12;;;;;;;9.27;0.95;;;16.50;99.90;;;;;;5068730;28;20071;-67
2023/07/03 05:53:38;;;;;;;4.33;1.10;;;16.50;99.90;;;;;;5074649;28;20036;-66
2023/07/03 05:56:04;;;;;;;4.20;1.03;;;16.60;99.90;;;;;;5073265;28;20082;-71
2023/07/03 05:58:30;;;;;;;5.53;1.25;;;16.60;99.90;;;;;;5072316;28;20060;-67
2023/07/03 06:00:58;;;;;;;6.88;1.73;;;16.60;99.90;;;;;;5069091;28;20052;-66
2023/07/03 06:03:25;;;;;;;2.63;1.50;;;16.70;99.90;;;;;;5076473;28;20032;-69
2023/07/03 06:05:51;;;;;;;4.38;1.15;;;16.70;99.90;;;;;;5077712;28;20082;-67
2023/07/03 06:08:17;;;;;;;2.50;0.75;;;16.80;99.90;;;;;;5067022;28;20017;-80
2023/07/03 06:10:45;;;;;;;3.78;1.10;;;16.80;99.90;;;;;;5074903;28;20102;-66
2023/07/03 06:13:10;;;;;;;;;;;16.90;99.90;;;;;;5077640;28;20025;-68
2023/07/03 06:15:36;;;;;;;3.23;1.00;;;17.00;99.90;;;;;;5071672;28;20298;-67
2023/07/03 06:18:03;;;;;;;4.55;1.27;;;17.00;99.90;;;;;;5060622;28;20312;-75
2023/07/03 06:20:30;;;;;;;3.08;1.20;;;17.10;99.90;;;;;;5086943;28;20025;-65
2023/07/03 06:22:56;;;;;;;4.53;1.10;;;17.10;99.90;;;;;;5076615;28;20028;-74
2023/07/03 06:25:21;;;;;;;2.93;1.10;;;17.00;99.90;;;;;;5069763;28;20029;-74
2023/07/03 06:27:49;;;;;;;2.57;1.13;;;17.10;99.90;;;;;;5070947;28;20468;-67
2023/07/03 06:30:14;;;;;;;5.97;1.20;;;17.10;99.90;;;;;;5060885;28;20012;-76
2023/07/03 06:32:40;;;;;;;3.40;0.90;;;17.10;99.90;;;;;;5071055;28;20037;-70
2023/07/03 06:35:07;;;;;;;12.95;1.63;;;17.20;99.90;;;;;;5070675;28;20372;-66
2023/07/03 06:37:33;;;;;;;2.67;1.02;;;17.20;99.90;;;;;;5060327;28;20496;-73
2023/07/03 06:39:59;;;;;;;2.10;0.80;;;17.20;99.90;;;;;;5066075;28;20115;-72
2023/07/03 06:42:25;;;;;;;5.50;1.20;;;17.20;99.90;;;;;;5064544;28;20036;-87
2023/07/03 06:44:50;;;;;;;1.90;1.10;;;17.20;99.90;;;;;;5073558;28;20040;-75
2023/07/03 06:47:16;;;;;;;5.77;0.90;;;17.10;99.90;;;;;;5064471;28;20103;-65
2023/07/03 06:49:42;;;;;;;7.93;1.70;;;17.10;99.90;;;;;;5067298;28;20020;-68
2023/07/03 06:52:10;;;;;;;5.17;1.83;;;17.20;99.90;;;;;;5070137;28;20319;-70
2023/07/03 06:54:36;;;;;;;3.67;0.85;;;17.20;99.90;;;;;;5077308;28;20027;-67
2023/07/03 06:57:02;;;;;;;8.70;1.35;;;17.30;99.90;;;;;;5063062;28;20024;-70
2023/07/03 06:59:28;;;;;;;5.78;1.90;;;17.40;99.90;;;;;;5076205;28;20053;-66
2023/07/03 07:01:54;;;;;;;9.77;1.20;;;17.40;99.90;;;;;;5069015;28;20032;-66
2023/07/03 07:04:20;;;;;;;1.83;1.00;;;17.40;99.90;;;;;;5073920;28;20025;-66
2023/07/03 07:06:47;;;;;;;10.10;1.70;;;17.40;99.90;;;;;;5062687;28;20411;-81
2023/07/03 07:09:15;;;;;;;5.85;1.08;;;17.40;99.90;;;;;;5075332;28;20104;-70
2023/07/03 07:11:41;;;;;;;5.22;0.93;;;17.30;99.90;;;;;;5073006;28;20044;-68
2023/07/03 07:14:07;;;;;;;5.40;1.30;;;17.40;99.90;;;;;;5075005;28;20086;-78
2023/07/03 07:16:39;;;;;;;9.57;0.97;;;17.50;99.90;;;;;;5076350;28;20052;-67
2023/07/03 07:19:07;;;;;;;8.43;1.95;;;17.50;99.90;;;;;;5066119;28;20086;-69
2023/07/03 07:21:35;;;;;;;4.28;1.00;;;17.50;99.90;;;;;;5076348;28;20036;-74
2023/07/03 07:24:11;;;;;;;2.33;0.95;;;17.60;99.90;;;;;;5073284;28;21653;-66
2023/07/03 07:26:37;;;;;;;6.10;1.30;;;17.70;99.90;;;;;;5089503;28;20024;-76
2023/07/03 07:29:04;;;;;;;6.50;1.73;;;17.80;99.90;;;;;;5076797;28;20033;-69
2023/07/03 07:31:31;;;;;;;3.80;1.35;;;17.90;99.90;;;;;;5076427;28;20813;-79
2023/07/03 07:33:57;;;;;;;5.63;1.00;;;18.00;99.90;;;;;;5075683;28;20033;-71
2023/07/03 07:36:25;;;;;;;7.32;1.27;;;18.00;99.90;;;;;;5075283;28;20016;-72
2023/07/03 07:38:54;;;;;;;9.70;1.73;;;17.90;99.90;;;;;;5076054;28;20416;-70
2023/07/03 07:41:22;;;;;;;3.00;1.42;;;17.90;99.90;;;;;;5062274;28;20040;-82
2023/07/03 07:43:50;;;;;;;5.05;1.10;;;17.90;99.90;;;;;;5059965;28;20028;-76
2023/07/03 07:46:16;;;;;;;11.43;1.33;;;18.00;99.90;;;;;;5075938;28;20029;-68
2023/07/03 07:48:42;;;;;;;1.50;0.93;;;18.10;99.90;;;;;;5074434;28;20108;-73
2023/07/03 07:51:10;;;;;;;3.13;1.23;;;18.20;99.90;;;;;;5072612;28;20039;-73
2023/07/03 07:53:36;;;;;;;7.53;0.90;;;18.20;99.90;;;;;;5071395;28;20028;-65
2023/07/03 07:56:03;;;;;;;5.47;0.95;;;18.20;99.90;;;;;;5066962;28;20104;-74
2023/07/03 07:58:29;;;;;;;1.17;0.70;;;18.30;99.90;;;;;;5061749;28;20410;-72
2023/07/03 08:00:58;;;;;;;2.50;0.98;;;18.40;99.90;;;;;;5073554;28;20478;-68
2023/07/03 08:03:26;;;;;;;1.77;0.90;;;18.40;99.90;;;;;;5067035;28;20017;-75
2023/07/03 08:06:03;;;;;;;3.50;0.95;;;18.50;99.90;;;;;;5064545;28;20044;-77
2023/07/03 08:08:31;;;;;;;4.10;0.90;;;18.50;99.90;;;;;;5072610;28;20083;-65
2023/07/03 08:10:59;;;;;;;2.47;0.88;;;18.50;99.90;;;;;;5069446;28;20028;-74
2023/07/03 08:13:26;;;;;;;2.45;0.90;;;18.50;99.90;;;;;;5068126;28;20085;-78
2023/07/03 08:15:52;;;;;;;3.80;1.10;;;18.40;99.90;;;;;;5070744;28;20021;-67
2023/07/03 08:18:19;;;;;;;2.55;0.90;;;18.30;99.90;;;;;;5071319;28;20052;-66
2023/07/03 08:20:45;;;;;;;5.50;1.08;;;18.30;99.90;;;;;;5072327;28;20025;-74
2023/07/03 08:23:11;;;;;;;3.33;1.13;;;18.50;99.90;;;;;;5070856;28;20025;-66
2023/07/03 08:25:37;;;;;;;8.23;1.17;;;18.80;99.90;;;;;;5074428;28;20288;-76
2023/07/03 08:28:04;;;;;;;7.00;1.58;;;19.00;99.90;;;;;;5070483;28;20431;-76
2023/07/03 08:30:30;;;;;;;8.50;1.27;;;19.30;99.90;;;;;;5066158;28;20029;-66
2023/07/03 08:32:56;;;;;;;9.30;2.10;;;19.50;99.90;;;;;;5073714;28;20032;-76
2023/07/03 08:35:22;;;;;;;5.22;1.00;;;19.40;99.90;;;;;;5072658;28;20111;-82
2023/07/03 08:37:49;;;;;;;1.93;0.87;;;19.40;99.90;;;;;;5062371;28;20471;-73
2023/07/03 08:40:20;;;;;;;5.35;1.23;;;19.40;99.90;;;;;;5071739;28;20024;-74
2023/07/03 08:42:47;;;;;;;4.45;1.15;;;19.40;99.90;;;;;;5063275;28;20029;-75
2023/07/03 08:45:19;;;;;;;3.72;1.30;;;19.30;99.90;;;;;;5055810;28;20104;-82
2023/07/03 08:47:48;;;;;;;1.55;0.82;;;19.40;99.90;;;;;;5067328;28;20025;-68
2023/07/03 08:50:18;;;;;;;3.88;1.05;;;19.60;99.90;;;;;;5071239;28;20029;-71
2023/07/03 08:53:03;;;;;;;4.88;1.05;;;19.70;99.90;;;;;;5069587;28;20028;-75
2023/07/03 08:55:36;;;;;;;5.30;1.13;;;19.80;99.90;;;;;;5069105;28;20035;-67
2023/07/03 08:58:02;;;;;;;2.95;0.80;;;19.60;99.90;;;;;;5075385;28;20107;-73
2023/07/03 09:00:34;;;;;;;2.67;1.10;;;19.40;99.90;;;;;;5060992;28;20428;-79
2023/07/03 09:03:17;;;;;;;2.25;0.50;;;19.40;99.90;;;;;;5073766;28;20613;-71
2023/07/03 09:05:48;;;;;;;2.90;0.88;;;19.50;99.90;;;;;;5070531;28;20025;-71
2023/07/03 09:08:25;;;;;;;4.72;1.20;;;19.40;99.90;;;;;;5075024;28;20023;-67
2023/07/03 09:10:51;;;;;;;2.30;0.65;;;19.30;99.90;;;;;;5060539;28;20012;-70
2023/07/03 09:13:34;;;;;;;2.95;0.93;;;19.10;99.90;;;;;;5074506;28;20033;-77
2023/07/03 09:16:21;;;;;;;5.15;0.68;;;19.00;99.90;;;;;;5070736;28;20029;-66
2023/07/03 09:19:08;;;;;;;4.20;1.02;;;18.80;99.90;;;;;;5074394;28;20024;-72
2023/07/03 09:21:38;;;;;;;6.88;1.83;;;19.00;99.90;;;;;;5068984;28;20089;-76
2023/07/03 09:24:23;;;;;;;4.07;0.90;;;19.10;99.90;;;;;;5063522;28;20060;-73
2023/07/03 09:27:07;;;;;;;2.30;0.90;;;19.10;99.90;;;;;;5061581;28;20071;-77
2023/07/03 09:29:34;;;;;;;1.65;0.95;;;19.10;99.90;;;;;;5068443;28;20028;-80
2023/07/03 09:32:01;;;;;;;6.50;0.88;;;19.00;99.90;;;;;;5072455;28;20024;-68
2023/07/03 09:34:26;;;;;;;5.28;0.88;;;19.10;99.90;;;;;;5061081;28;20426;-66
2023/07/03 09:37:03;;;;;;;1.60;0.60;;;19.20;99.90;;;;;;5070800;28;20031;-81
2023/07/03 09:39:31;;;;;;;5.95;1.15;;;19.10;99.90;;;;;;5071647;28;20033;-76
2023/07/03 09:42:08;;;;;;;1.10;0.57;;;19.00;99.90;;;;;;5067463;28;20020;-79
2023/07/03 09:44:40;;;;;;;;;;;18.90;99.90;;;;;;5060351;28;20104;-66
2023/07/03 09:47:21;;;;;;;3.33;1.02;;;18.80;99.90;;;;;;5068978;28;20321;-78
2023/07/03 09:49:50;;;;;;;7.10;1.45;;;18.70;99.90;;;;;;5059475;28;20434;-71
2023/07/03 09:52:16;;;;;;;3.42;0.95;;;18.70;99.90;;;;;;5071359;28;20068;-82
2023/07/03 09:54:45;;;;;;;3.92;0.90;;;18.60;99.90;;;;;;5071055;28;20441;-69
2023/07/03 09:57:23;;;;;;;3.13;1.20;;;18.50;99.90;;;;;;5066058;28;20428;-65
2023/07/03 09:59:49;;;;;;;7.57;1.55;;;18.50;99.90;;;;;;5064182;28;20055;-66
2023/07/03 10:02:17;;;;;;;6.45;1.00;;;18.40;99.90;;;;;;5068449;28;20074;-77
2023/07/03 10:04:44;;;;;;;6.70;1.13;;;18.40;99.90;;;;;;5068350;28;20036;-66
2023/07/03 10:07:15;;;;;;;6.20;1.20;;;18.40;99.90;;;;;;5069268;28;20112;-78
2023/07/03 10:09:43;;;;;;;5.88;1.20;;;18.40;99.90;;;;;;5068743;28;20021;-70
2023/07/03 10:12:32;;;;;;;10.60;1.52;;;18.60;99.90;;;;;;5068678;28;20036;-72
2023/07/03 10:15:06;;;;;;;5.22;0.88;;;18.90;99.90;;;;;;5069773;28;20370;-76
2023/07/03 10:17:53;;;;;;;4.43;0.90;;;19.20;99.90;;;;;;5068932;28;20035;-68
2023/07/03 10:20:42;;;;;;;5.90;0.90;;;19.30;99.90;;;;;;5062168;28;20044;-70
2023/07/03 10:23:12;;;;;;;6.00;1.02;;;19.50;99.90;;;;;;5062273;28;20067;-74
2023/07/03 10:25:42;;;;;;;4.60;0.80;;;19.60;99.90;;;;;;5074262;28;20025;-72
2023/07/03 10:28:18;;;;;;;6.10;1.00;;;19.80;99.90;;;;;;5073416;28;20074;-70
2023/07/03 10:30:47;;;;;;;4.60;1.35;;;19.70;99.90;;;;;;5076284;28;20331;-73
2023/07/03 10:33:20;;;;;;;3.25;1.17;;;19.70;99.90;;;;;;5068737;28;20020;-72
2023/07/03 10:35:50;;;;;;;5.75;0.90;;;19.70;99.90;;;;;;5067409;28;20021;-67
2023/07/03 10:38:40;;;;;;;2.97;0.73;;;19.60;99.90;;;;;;5068972;28;20055;-73
2023/07/03 10:41:13;;;;;;;3.42;1.17;;;19.40;99.90;;;;;;5073560;28;20040;-79
2023/07/03 10:43:46;;;;;;;4.30;0.77;;;19.30;99.90;;;;;;5074130;28;20017;-82
2023/07/03 10:46:35;;;;;;;4.95;1.20;;;19.30;99.90;;;;;;5073817;28;20032;-75
2023/07/03 10:49:06;;;;;;;6.22;0.88;;;19.30;99.90;;;;;;5072013;28;20032;-80
2023/07/03 10:51:54;;;;;;;3.58;1.08;;;19.30;99.90;;;;;;5073627;28;20028;-69
2023/07/03 10:54:33;;;;;;;5.65;0.95;;;19.20;99.90;;;;;;5067510;28;20380;-76
2023/07/03 10:57:02;;;;;;;5.40;0.88;;;19.20;99.90;;;;;;5074243;28;21879;-67
2023/07/03 10:59:35;;;;;;;4.50;0.80;;;19.20;99.90;;;;;;5070926;28;20040;-77
2023/07/03 11:02:41;;;;;;;3.08;1.17;;;19.20;99.90;;;;;;5075624;28;20027;-66
2023/07/03 11:05:34;;;;;;;1.17;0.90;;;19.10;99.90;;;;;;5072268;28;20036;-69
2023/07/03 11:08:13;;;;;;;11.02;1.15;;;19.30;99.90;;;;;;5072615;28;20140;-78
2023/07/03 11:10:54;;;;;;;3.47;0.77;;;19.50;99.90;;;;;;5068344;28;20026;-81
2023/07/03 11:13:42;;;;;;;6.53;1.10;;;19.50;99.90;;;;;;5067110;28;20111;-85
2023/07/03 11:16:15;;;;;;;8.57;0.93;;;19.70;99.90;;;;;;5064388;28;20023;-92
2023/07/03 11:19:16;;;;;;;3.53;0.95;;;19.90;99.90;;;;;;5073525;28;20047;-84
2023/07/03 11:22:12;;;;;;;2.53;0.60;;;20.10;99.90;;;;;;5071272;28;20067;-84
2023/07/03 11:24:45;;;;;;;12.35;0.90;;;20.30;99.90;;;;;;5071551;28;20415;-87
2023/07/03 11:27:37;;;;;;;4.85;1.00;;;20.10;99.90;;;;;;5076981;28;20025;-90
2023/07/03 11:30:03;;;;;;;4.20;0.70;;;19.90;99.90;;;;;;5075569;28;20019;-64
2023/07/03 11:32:34;;;;;;;1.27;0.57;;;19.70;99.90;;;;;;5076489;28;20028;-67
2023/07/03 11:35:04;;;;;;;2.70;1.30;;;19.50;99.90;;;;;;5068934;28;20035;-79
2023/07/03 11:37:44;;;;;;;2.85;1.02;;;19.30;99.90;;;;;;5066552;28;20398;-67
2023/07/03 11:40:40;;;;;;;6.20;1.20;;;19.10;99.90;;;;;;5064848;28;20051;-73
2023/07/03 11:43:11;;;;;;;3.78;1.20;;;19.10;99.90;;;;;;5066154;28;20025;-72
2023/07/03 11:45:37;;;;;;;5.55;1.20;;;19.20;99.90;;;;;;5064174;28;20467;-88
2023/07/03 11:48:03;;;;;;;2.63;0.95;;;19.10;99.90;;;;;;5074157;28;20024;-69
2023/07/03 11:50:34;;;;;;;2.22;1.00;;;19.00;99.90;;;;;;5065700;28;20323;-87
2023/07/03 11:53:01;;;;;;;3.03;0.88;;;18.90;99.90;;;;;;5062196;28;20087;-73
2023/07/03 11:55:39;;;;;;;5.80;0.80;;;19.10;99.90;;;;;;5068257;28;20027;-74
2023/07/03 11:58:05;;;;;;;2.38;0.57;;;19.50;99.90;;;;;;5067338;28;20478;-80
2023/07/03 12:00:32;;;;;;;1.97;0.77;;;19.60;99.90;;;;;;5072412;28;20044;-77
2023/07/03 12:02:59;;;;;;;0.60;0.43;;;19.40;99.90;;;;;;5073659;28;20143;-83
2023/07/03 12:05:44;;;;;;;2.78;0.50;;;19.30;99.90;;;;;;5072747;28;20437;-80
2023/07/03 12:08:36;;;;;;;4.20;0.70;;;19.30;99.90;;;;;;5074306;28;20056;-83
2023/07/03 12:11:03;;;;;;;6.38;1.17;;;19.40;99.90;;;;;;5066113;28;20092;-87
2023/07/03 12:13:50;;;;;;;2.50;0.75;;;19.40;99.90;;;;;;5065738;28;20024;-78
2023/07/03 12:16:29;;;;;;;3.33;0.98;;;19.20;99.90;;;;;;5073883;28;20025;-72
2023/07/03 12:18:58;;;;;;;4.13;0.55;;;19.00;99.90;;;;;;5068556;28;20029;-75
2023/07/03 12:21:32;;;;;;;3.88;1.00;;;18.80;99.90;;;;;;5075475;28;20434;-65
2023/07/03 12:23:58;;;;;;;4.55;1.23;;;18.60;99.90;;;;;;5071618;28;20321;-66
2023/07/03 12:26:24;;;;;;;5.60;0.90;;;18.50;99.90;;;;;;5075035;28;20030;-70
2023/07/03 12:29:03;;;;;;;4.07;0.90;;;18.30;99.90;;;;;;5066906;28;20056;-82
2023/07/03 12:31:29;;;;;;;2.72;0.90;;;18.20;99.90;;;;;;5068676;28;20474;-71
2023/07/03 12:34:00;;;;;;;5.30;1.00;;;18.10;99.90;;;;;;5074317;28;20059;-75
2023/07/03 12:36:31;;;;;;;7.57;1.33;;;18.10;99.90;;;;;;5072385;28;20032;-67
2023/07/03 12:38:59;;;;;;;4.03;0.90;;;17.90;99.90;;;;;;5074656;28;20436;-66
2023/07/03 12:41:29;;;;;;;3.08;0.90;;;17.80;99.90;;;;;;5069582;28;20032;-74
2023/07/03 12:43:55;;;;;;;2.88;0.77;;;17.70;99.90;;;;;;5073342;28;20025;-80
2023/07/03 12:46:32;;;;;;;2.28;0.90;;;17.60;99.90;;;;;;5068122;28;20661;-76
2023/07/03 12:49:17;;;;;;;5.22;1.23;;;17.40;99.90;;;;;;5065878;28;20030;-82
2023/07/03 12:51:56;;;;;;;2.80;1.17;;;17.20;99.90;;;;;;5065701;28;20057;-68
2023/07/03 12:54:23;;;;;;;8.93;1.10;;;17.10;99.90;;;;;;5071910;28;20415;-68
2023/07/03 12:56:52;;;;;;;2.47;0.80;;;17.10;99.90;;;;;;5056466;28;20079;-67
2023/07/03 12:59:20;;;;;;;2.90;0.70;;;17.20;99.90;;;;;;5057979;28;20458;-68
2023/07/03 13:01:49;;;;;;;2.58;1.02;;;17.60;99.90;;;;;;5068854;28;20033;-68